메인 페이지
METAR-TAF:

METAR-TAF

공항 :

다윈 국제공항

다윈, 오스트레일리아

위도: 12-24S, 경도: 130-52E, 고도: 31m

현재 날씨관측

예보는 25분 전, 20:30시(UTC)에 발표되었습니다.
9kt
온도 22°C
습도 33%
기압 1013 hPa
시정 10km 이상
1500m 미만 상공 구름 및 적란운 없음

METAR: YPDN 202030Z 10009KT CAVOK 22/05 Q1013 NOSIG

시각: 06:25 (20:55 UTC)

예보

예보는 3 시간 47분 전, 17:08시(UTC)에 발표되었습니다.
예보 대상 시간: 20일 18시부터 21일 24시까지 (UTC)
남동7kt
시정 10km 이상
1500m 미만 상공 구름 및 적란운 없음
21일 0000시부터 (UTC)
동남동14kt
시정 10km 이상
1500m 미만 상공 구름 및 적란운 없음
21일 0500시부터 (UTC)
북북동8kt
시정 10km 이상
1500m 미만 상공 구름 및 적란운 없음
21일 1500시부터 (UTC)
5kt
시정 10km 이상
1500m 미만 상공 구름 및 적란운 없음

TAF: YPDN 201708Z 2018/2124 13007KT CAVOK FM210000 12014KT CAVOK FM210500 03008KT CAVOK FM211500 09005KT CAVOK

4,000개 이상의 공항 관측 자료 및 예보 (METAR 및 TAF 보고).

지도상에서 검색 가능한 기상관측소가 노란 점과 빨간 점으로 표시되어 있습니다.

기상관측소 명을 보려면 표시 위로 마우스를 이동하세요.

날씨 관측과 예보를 보려면 클릭하세요.

지도 변경 : 확대하려면 엑스 표시가 있는 녹색 버튼, 축소하려면 빼기 표시가 있는 녹색 버튼, 다음 페이지의 지도를 보려면 녹색 화살표를 클릭하세요.


METAR-TAF: